createdAt,value
2019-03-30T00:01:19.908Z,54.70
2019-03-30T00:03:54.886Z,54.90
2019-03-30T00:06:28.245Z,54.80
2019-03-30T00:09:01.949Z,54.70
2019-03-30T00:11:35.620Z,54.60
2019-03-30T00:14:09.075Z,54.70
2019-03-30T00:16:41.719Z,54.50
2019-03-30T00:19:16.624Z,54.60
2019-03-30T00:21:51.738Z,54.80
2019-03-30T00:24:23.948Z,54.70
2019-03-30T00:26:57.434Z,54.80
2019-03-30T00:29:31.732Z,54.80
2019-03-30T00:32:04.229Z,54.70
2019-03-30T00:34:38.047Z,54.70
2019-03-30T00:37:16.291Z,54.60
2019-03-30T00:39:48.694Z,54.90
2019-03-30T00:42:22.211Z,54.40
2019-03-30T00:44:57.178Z,54.10
2019-03-30T00:47:30.214Z,54.10
2019-03-30T00:50:02.536Z,54.00
2019-03-30T00:52:34.776Z,53.70
2019-03-30T00:55:06.579Z,53.80
2019-03-30T00:57:38.308Z,54.00
2019-03-30T01:00:09.857Z,54.00
2019-03-30T01:02:42.157Z,53.90
2019-03-30T01:05:13.633Z,54.00
2019-03-30T01:07:46.262Z,54.00
2019-03-30T01:10:18.155Z,54.10
2019-03-30T01:12:49.657Z,54.80
2019-03-30T01:15:21.360Z,54.20
2019-03-30T01:17:52.970Z,54.30
2019-03-30T01:20:24.399Z,54.30
2019-03-30T01:22:56.651Z,54.30
2019-03-30T01:25:28.307Z,54.40
2019-03-30T01:27:59.825Z,54.40
2019-03-30T01:30:31.462Z,54.50
2019-03-30T01:33:02.985Z,54.40
2019-03-30T01:35:34.402Z,54.50
2019-03-30T01:38:05.880Z,54.50
2019-03-30T01:40:37.281Z,54.70
2019-03-30T01:43:08.849Z,54.30
2019-03-30T01:45:40.211Z,54.20
2019-03-30T01:48:11.783Z,53.90
2019-03-30T01:50:43.275Z,53.80
2019-03-30T01:53:14.722Z,54.20
2019-03-30T01:55:45.999Z,54.10
2019-03-30T01:58:17.323Z,54.30
2019-03-30T02:00:49.235Z,54.20
2019-03-30T02:03:20.951Z,54.20
2019-03-30T02:05:52.356Z,54.10
2019-03-30T02:08:23.743Z,54.10
2019-03-30T02:10:55.195Z,54.10
2019-03-30T02:13:26.594Z,54.00
2019-03-30T02:15:58.115Z,53.90
2019-03-30T02:18:29.561Z,54.00
2019-03-30T02:21:01.141Z,54.10
2019-03-30T02:23:32.591Z,54.10
2019-03-30T02:26:04.226Z,54.10
2019-03-30T02:28:35.702Z,54.10
2019-03-30T02:31:07.229Z,54.00
2019-03-30T02:33:38.665Z,54.10
2019-03-30T02:36:10.215Z,54.70
2019-03-30T02:38:41.767Z,54.10
2019-03-30T02:41:13.227Z,54.00
2019-03-30T02:43:44.631Z,53.90
2019-03-30T02:46:16.455Z,53.80
2019-03-30T02:48:47.995Z,53.80
2019-03-30T02:51:19.540Z,53.80
2019-03-30T02:53:50.962Z,53.90
2019-03-30T02:56:22.277Z,54.00
2019-03-30T02:58:53.899Z,54.00
2019-03-30T03:01:25.194Z,54.20
2019-03-30T03:03:56.678Z,54.20
2019-03-30T03:06:28.873Z,54.20
2019-03-30T03:09:00.460Z,54.20
2019-03-30T03:11:31.938Z,54.20
2019-03-30T03:14:03.401Z,54.30
2019-03-30T03:16:34.921Z,54.30
2019-03-30T03:19:06.272Z,54.30
2019-03-30T03:21:37.704Z,54.20
2019-03-30T03:24:09.014Z,54.10
2019-03-30T03:26:40.452Z,53.90
2019-03-30T03:29:12.744Z,53.90
2019-03-30T03:31:45.497Z,54.00
2019-03-30T03:34:19.963Z,54.00
2019-03-30T03:36:55.279Z,54.00
2019-03-30T03:39:31.136Z,53.90
2019-03-30T03:42:04.821Z,53.80
2019-03-30T03:44:37.250Z,53.70
2019-03-30T03:47:13.110Z,53.70
2019-03-30T03:49:45.165Z,53.70
2019-03-30T03:52:16.419Z,53.80
2019-03-30T03:54:48.097Z,53.80
2019-03-30T03:57:19.714Z,54.50
2019-03-30T03:59:52.161Z,54.00
2019-03-30T04:02:23.677Z,54.00
2019-03-30T04:04:55.810Z,54.00
2019-03-30T04:07:27.452Z,54.10
2019-03-30T04:09:59.541Z,54.10
2019-03-30T04:12:31.141Z,54.10
2019-03-30T04:15:02.668Z,54.20
2019-03-30T04:17:34.429Z,54.30
2019-03-30T04:20:06.619Z,54.30
2019-03-30T04:22:38.140Z,54.30
2019-03-30T04:25:09.542Z,54.20
2019-03-30T04:27:41.029Z,54.10
2019-03-30T04:30:13.262Z,54.20
2019-03-30T04:32:44.601Z,54.30
2019-03-30T04:35:16.103Z,54.10
2019-03-30T04:37:47.753Z,54.00
2019-03-30T04:40:19.124Z,53.80
2019-03-30T04:42:50.440Z,53.80
2019-03-30T04:45:21.729Z,53.90
2019-03-30T04:47:52.953Z,53.80
2019-03-30T04:50:24.141Z,53.80
2019-03-30T04:52:55.688Z,53.90
2019-03-30T04:55:27.192Z,53.90
2019-03-30T04:57:58.647Z,53.90
2019-03-30T05:00:30.187Z,53.80
2019-03-30T05:03:01.665Z,53.90
2019-03-30T05:05:33.631Z,53.80
2019-03-30T05:08:05.079Z,53.80
2019-03-30T05:10:36.499Z,53.80
2019-03-30T05:13:07.985Z,53.80
2019-03-30T05:15:39.270Z,53.90
2019-03-30T05:18:10.833Z,53.90
2019-03-30T05:20:42.336Z,53.90
2019-03-30T05:23:13.687Z,53.90
2019-03-30T05:25:45.098Z,54.00
2019-03-30T05:28:16.495Z,54.00
2019-03-30T05:30:48.362Z,54.00
2019-03-30T05:33:19.803Z,54.10
2019-03-30T05:35:51.168Z,54.30
2019-03-30T05:38:22.731Z,53.70
2019-03-30T05:40:54.116Z,53.80
2019-03-30T05:43:25.541Z,53.80
2019-03-30T05:45:56.973Z,53.90
2019-03-30T05:48:28.433Z,54.00
2019-03-30T05:50:59.782Z,54.10
2019-03-30T05:53:31.205Z,54.10
2019-03-30T05:56:02.527Z,54.10
2019-03-30T05:58:33.926Z,54.10
2019-03-30T06:01:05.356Z,54.10
2019-03-30T06:03:36.828Z,54.10
2019-03-30T06:06:08.528Z,54.00
2019-03-30T06:08:39.924Z,54.00
2019-03-30T06:11:11.125Z,53.90
2019-03-30T06:13:42.459Z,53.90
2019-03-30T06:16:13.864Z,53.90
2019-03-30T06:18:45.159Z,53.90
2019-03-30T06:21:16.686Z,53.90
2019-03-30T06:23:48.694Z,53.90
2019-03-30T06:26:20.787Z,53.90
2019-03-30T06:28:52.249Z,53.70
2019-03-30T06:31:23.538Z,53.80
2019-03-30T06:33:55.050Z,53.60
2019-03-30T06:36:26.575Z,53.60
2019-03-30T06:38:57.931Z,54.20
2019-03-30T06:41:29.350Z,53.80
2019-03-30T06:44:01.066Z,53.80
2019-03-30T06:46:32.653Z,54.10
2019-03-30T06:49:04.148Z,55.30
2019-03-30T06:51:35.598Z,55.40
2019-03-30T06:54:07.082Z,55.10
2019-03-30T06:56:38.650Z,55.00
2019-03-30T06:59:10.154Z,54.80
2019-03-30T07:01:41.646Z,55.00
2019-03-30T07:04:13.406Z,55.00
2019-03-30T07:06:46.648Z,55.10
2019-03-30T07:09:18.391Z,55.20
2019-03-30T07:11:50.089Z,55.00
2019-03-30T07:14:21.654Z,54.80
2019-03-30T07:16:54.077Z,53.80
2019-03-30T07:19:26.047Z,53.90
2019-03-30T07:21:57.520Z,52.50
2019-03-30T07:24:29.115Z,51.70
2019-03-30T07:27:00.821Z,50.90
2019-03-30T07:29:32.086Z,50.60
2019-03-30T07:32:03.619Z,50.30
2019-03-30T07:34:34.869Z,49.80
2019-03-30T07:37:06.408Z,49.20
2019-03-30T07:39:37.673Z,48.40
2019-03-30T07:42:08.868Z,48.00
2019-03-30T07:44:40.384Z,47.80
2019-03-30T07:47:11.822Z,47.70
2019-03-30T07:49:43.332Z,47.60
2019-03-30T07:52:14.832Z,47.50
2019-03-30T07:54:46.320Z,47.50
2019-03-30T07:57:17.889Z,47.30
2019-03-30T07:59:49.484Z,47.80
2019-03-30T08:02:21.021Z,47.60
2019-03-30T08:04:52.622Z,47.90
2019-03-30T08:07:24.225Z,47.80
2019-03-30T08:09:55.677Z,47.80
2019-03-30T08:12:27.366Z,48.50
2019-03-30T08:14:58.823Z,48.60
2019-03-30T08:17:30.217Z,49.50
2019-03-30T08:20:02.102Z,50.60
2019-03-30T08:22:33.491Z,51.10
2019-03-30T08:25:05.429Z,50.20
2019-03-30T08:27:37.121Z,49.10
2019-03-30T08:30:10.076Z,48.40
2019-03-30T08:32:41.608Z,47.40
2019-03-30T08:35:13.000Z,48.10
2019-03-30T08:37:47.518Z,47.70
2019-03-30T08:40:21.461Z,47.50
2019-03-30T08:42:57.291Z,47.60
2019-03-30T08:45:30.077Z,47.40
2019-03-30T08:48:03.179Z,47.30
2019-03-30T08:50:34.667Z,47.50
2019-03-30T08:53:06.395Z,48.10
2019-03-30T08:55:38.238Z,48.20
2019-03-30T08:58:09.891Z,48.40
2019-03-30T09:00:42.615Z,48.40
2019-03-30T09:03:14.357Z,48.30
2019-03-30T09:05:45.857Z,48.10
2019-03-30T09:08:17.230Z,48.50
2019-03-30T09:10:48.705Z,48.40
2019-03-30T09:13:20.006Z,48.50
2019-03-30T09:15:51.445Z,48.40
2019-03-30T09:18:23.345Z,48.20
2019-03-30T09:20:54.811Z,49.10
2019-03-30T09:23:26.314Z,49.60
2019-03-30T09:25:57.792Z,49.60
2019-03-30T09:28:31.332Z,49.30
2019-03-30T09:31:02.872Z,49.30
2019-03-30T09:33:34.421Z,49.60
2019-03-30T09:36:06.003Z,49.80
2019-03-30T09:38:37.492Z,49.90
2019-03-30T09:41:09.156Z,50.60
2019-03-30T09:43:40.524Z,50.60
2019-03-30T09:46:12.162Z,50.70
2019-03-30T09:48:43.642Z,50.90
2019-03-30T09:51:15.356Z,50.80
2019-03-30T09:53:46.877Z,51.70
2019-03-30T09:56:19.229Z,51.60
2019-03-30T09:58:50.538Z,51.70
2019-03-30T10:01:21.964Z,51.90
2019-03-30T10:03:53.411Z,51.90
2019-03-30T10:06:33.853Z,51.50
2019-03-30T10:08:58.167Z,51.20
2019-03-30T10:11:29.427Z,50.10
2019-03-30T10:14:00.891Z,51.50
2019-03-30T10:16:32.374Z,52.60
2019-03-30T10:19:03.719Z,51.00
2019-03-30T10:21:35.267Z,51.30
2019-03-30T10:24:06.702Z,51.60
2019-03-30T10:26:38.128Z,53.90
2019-03-30T10:29:09.808Z,52.70
2019-03-30T10:31:41.374Z,52.00
2019-03-30T10:34:12.869Z,52.00
2019-03-30T10:36:44.967Z,51.50
2019-03-30T10:39:16.520Z,51.20
2019-03-30T10:41:47.845Z,50.50
2019-03-30T10:44:19.261Z,50.30
2019-03-30T10:46:50.908Z,50.00
2019-03-30T10:49:22.461Z,50.00
2019-03-30T10:51:54.547Z,50.10
2019-03-30T10:54:26.227Z,50.40
2019-03-30T10:56:57.751Z,50.60
2019-03-30T10:59:29.255Z,50.30
2019-03-30T11:02:00.843Z,50.00
2019-03-30T11:04:32.353Z,49.70
2019-03-30T11:07:04.089Z,49.40
2019-03-30T11:09:35.802Z,48.90
2019-03-30T11:12:07.230Z,48.40
2019-03-30T11:14:38.605Z,48.40
2019-03-30T11:17:10.141Z,48.70
2019-03-30T11:19:41.563Z,48.60
2019-03-30T11:22:13.125Z,48.30
2019-03-30T11:24:44.684Z,48.20
2019-03-30T11:27:16.256Z,48.60
2019-03-30T11:29:47.764Z,49.00
2019-03-30T11:32:19.132Z,49.00
2019-03-30T11:34:50.600Z,48.70
2019-03-30T11:37:21.937Z,48.40
2019-03-30T11:39:53.262Z,48.40
2019-03-30T11:42:24.871Z,48.40
2019-03-30T11:44:56.426Z,48.40
2019-03-30T11:47:27.759Z,48.30
2019-03-30T11:50:00.412Z,48.50
2019-03-30T11:52:31.784Z,48.60
2019-03-30T11:55:03.186Z,48.70
2019-03-30T11:57:34.474Z,48.90
2019-03-30T12:00:05.792Z,49.50
2019-03-30T12:02:37.164Z,49.80
2019-03-30T12:05:08.702Z,49.90
2019-03-30T12:07:40.208Z,50.10
2019-03-30T12:10:11.535Z,50.10
2019-03-30T12:12:43.129Z,50.00
2019-03-30T12:15:14.460Z,50.10
2019-03-30T12:17:45.899Z,50.20
2019-03-30T12:20:17.332Z,50.20
2019-03-30T12:22:48.606Z,50.30
2019-03-30T12:25:34.524Z,50.40
2019-03-30T12:27:54.950Z,50.40
2019-03-30T12:30:26.425Z,50.50
2019-03-30T12:32:57.784Z,50.80
2019-03-30T12:35:29.315Z,50.90
2019-03-30T12:38:00.769Z,50.90
2019-03-30T12:40:32.267Z,50.90
2019-03-30T12:43:03.734Z,51.10
2019-03-30T12:45:35.178Z,51.00
2019-03-30T12:48:06.561Z,51.10
2019-03-30T12:50:38.278Z,51.10
2019-03-30T12:53:09.828Z,51.10
2019-03-30T12:55:49.068Z,51.20
2019-03-30T12:58:14.162Z,51.40
2019-03-30T13:00:45.685Z,51.50
2019-03-30T13:03:17.268Z,51.40
2019-03-30T13:05:48.576Z,51.10
2019-03-30T13:08:20.576Z,50.60
2019-03-30T13:10:52.168Z,50.30
2019-03-30T13:13:23.943Z,50.20
2019-03-30T13:15:55.506Z,50.30
2019-03-30T13:18:27.007Z,50.40
2019-03-30T13:20:58.478Z,49.90
2019-03-30T13:23:30.248Z,49.60
2019-03-30T13:26:03.824Z,49.40
2019-03-30T13:28:35.105Z,49.40
2019-03-30T13:31:06.509Z,49.20
2019-03-30T13:33:38.005Z,48.70
2019-03-30T13:36:10.795Z,48.60
2019-03-30T13:38:42.359Z,48.70
2019-03-30T13:41:14.459Z,48.90
2019-03-30T13:43:45.912Z,49.00
2019-03-30T13:46:17.476Z,49.00
2019-03-30T13:48:48.843Z,49.30
2019-03-30T13:51:20.234Z,49.70
2019-03-30T13:53:51.664Z,49.70
2019-03-30T13:56:23.188Z,49.80
2019-03-30T13:58:54.696Z,50.30
2019-03-30T14:01:26.151Z,50.60
2019-03-30T14:03:57.548Z,50.80
2019-03-30T14:06:28.991Z,50.90
2019-03-30T14:09:00.521Z,51.40
2019-03-30T14:11:32.077Z,51.10
2019-03-30T14:14:03.382Z,50.80
2019-03-30T14:16:34.734Z,50.90
2019-03-30T14:19:06.356Z,50.80
2019-03-30T14:21:37.841Z,50.70
2019-03-30T14:24:09.176Z,50.60
2019-03-30T14:26:40.753Z,50.20
2019-03-30T14:29:12.186Z,49.40
2019-03-30T14:31:43.643Z,48.90
2019-03-30T14:34:15.250Z,49.10
2019-03-30T14:36:46.577Z,49.10
2019-03-30T14:39:17.944Z,49.00
2019-03-30T14:41:49.679Z,49.00
2019-03-30T14:44:21.260Z,48.60
2019-03-30T14:46:53.662Z,48.30
2019-03-30T14:49:25.272Z,48.30
2019-03-30T14:51:56.693Z,49.00
2019-03-30T14:54:28.166Z,49.30
2019-03-30T14:56:59.653Z,49.50
2019-03-30T14:59:31.100Z,50.40
2019-03-30T15:02:02.699Z,50.30
2019-03-30T15:04:34.279Z,50.20
2019-03-30T15:07:05.596Z,56.50
2019-03-30T15:09:37.048Z,55.40
2019-03-30T15:12:08.572Z,56.90
2019-03-30T15:14:40.119Z,61.20
2019-03-30T15:17:11.645Z,59.60
2019-03-30T15:19:45.347Z,65.70
2019-03-30T15:22:17.146Z,62.00
2019-03-30T15:24:48.694Z,66.90
2019-03-30T15:27:20.188Z,72.10
2019-03-30T15:29:51.731Z,59.90
2019-03-30T15:32:23.178Z,54.30
2019-03-30T15:34:58.131Z,52.80
2019-03-30T15:37:27.751Z,50.30
2019-03-30T15:39:59.181Z,49.20
2019-03-30T15:42:30.471Z,49.80
2019-03-30T15:45:02.374Z,49.20
2019-03-30T15:47:33.824Z,48.60
2019-03-30T15:50:05.438Z,48.60
2019-03-30T15:52:36.709Z,48.30
2019-03-30T15:55:08.443Z,47.80
2019-03-30T15:57:39.942Z,47.90
2019-03-30T16:00:13.395Z,48.20
2019-03-30T16:02:44.562Z,47.90
2019-03-30T16:05:16.175Z,47.70
2019-03-30T16:07:47.395Z,47.20
2019-03-30T16:10:18.758Z,47.20
2019-03-30T16:12:50.307Z,53.70
2019-03-30T16:15:21.721Z,47.60
2019-03-30T16:17:53.483Z,46.80
2019-03-30T16:20:24.928Z,47.20
2019-03-30T16:22:56.485Z,51.00
2019-03-30T16:25:28.085Z,49.20
2019-03-30T16:27:59.586Z,47.30
2019-03-30T16:30:31.105Z,45.90
2019-03-30T16:33:02.891Z,45.70
2019-03-30T16:35:34.419Z,45.40
2019-03-30T16:38:06.045Z,45.50
2019-03-30T16:40:37.735Z,45.60
2019-03-30T16:43:09.397Z,45.60
2019-03-30T16:45:41.107Z,45.50
2019-03-30T16:48:14.732Z,45.00
2019-03-30T16:50:45.707Z,44.60
2019-03-30T16:53:16.930Z,43.80
2019-03-30T16:55:48.265Z,42.80
2019-03-30T16:58:19.815Z,43.20
2019-03-30T17:00:56.855Z,43.60
2019-03-30T17:03:24.693Z,43.90
2019-03-30T17:05:56.222Z,44.90
2019-03-30T17:08:27.634Z,44.60
2019-03-30T17:10:59.041Z,44.70
2019-03-30T17:13:30.468Z,45.00
2019-03-30T17:16:01.807Z,45.00
2019-03-30T17:18:33.118Z,45.10
2019-03-30T17:21:04.787Z,45.20
2019-03-30T17:23:36.362Z,45.30
2019-03-30T17:26:08.105Z,45.30
2019-03-30T17:28:39.651Z,45.30
2019-03-30T17:31:11.029Z,45.60
2019-03-30T17:33:42.749Z,45.60
2019-03-30T17:36:14.196Z,45.70
2019-03-30T17:38:45.664Z,45.70
2019-03-30T17:41:17.092Z,45.70
2019-03-30T17:43:48.512Z,45.70
2019-03-30T17:46:19.973Z,45.70
2019-03-30T17:48:51.461Z,45.70
2019-03-30T17:51:22.888Z,45.90
2019-03-30T17:53:54.722Z,45.90
2019-03-30T17:56:26.193Z,45.90
2019-03-30T17:58:57.682Z,46.00
2019-03-30T18:01:29.474Z,46.00
2019-03-30T18:04:01.468Z,46.10
2019-03-30T18:06:33.041Z,46.10
2019-03-30T18:09:05.308Z,46.20
2019-03-30T18:11:36.893Z,46.20
2019-03-30T18:14:08.283Z,46.30
2019-03-30T18:16:39.517Z,46.40
2019-03-30T18:19:12.184Z,46.30
2019-03-30T18:21:43.688Z,46.40
2019-03-30T18:24:15.465Z,46.50
2019-03-30T18:26:47.065Z,46.60
2019-03-30T18:29:18.836Z,46.60
2019-03-30T18:31:50.222Z,46.60
2019-03-30T18:34:21.773Z,46.60
2019-03-30T18:36:53.267Z,46.70
2019-03-30T18:39:24.720Z,46.70
2019-03-30T18:41:56.075Z,46.70
2019-03-30T18:44:27.619Z,46.10
2019-03-30T18:46:59.064Z,45.50
2019-03-30T18:49:30.442Z,45.20
2019-03-30T18:52:02.194Z,44.70
2019-03-30T18:54:33.685Z,44.70
2019-03-30T18:57:05.375Z,45.10
2019-03-30T18:59:36.762Z,45.30
2019-03-30T19:02:08.406Z,45.40
2019-03-30T19:04:40.229Z,45.90
2019-03-30T19:07:11.937Z,46.60
2019-03-30T19:09:43.616Z,47.10
2019-03-30T19:12:15.019Z,47.20
2019-03-30T19:14:46.714Z,46.90
2019-03-30T19:17:18.596Z,46.80
2019-03-30T19:19:50.393Z,46.70
2019-03-30T19:22:22.557Z,46.60
2019-03-30T19:24:55.393Z,46.80
2019-03-30T19:27:27.102Z,46.80
2019-03-30T19:29:58.634Z,47.10
2019-03-30T19:32:29.973Z,47.20
2019-03-30T19:35:01.580Z,47.30
2019-03-30T19:37:33.100Z,47.50
2019-03-30T19:40:04.847Z,47.60
2019-03-30T19:42:36.378Z,47.70
2019-03-30T19:45:08.487Z,47.80
2019-03-30T19:47:40.024Z,47.80
2019-03-30T19:50:11.827Z,48.00
2019-03-30T19:52:43.476Z,48.40
2019-03-30T19:55:15.298Z,48.20
2019-03-30T19:57:46.641Z,48.40
2019-03-30T20:00:18.163Z,48.40
2019-03-30T20:02:49.701Z,48.50
2019-03-30T20:05:21.216Z,48.50
2019-03-30T20:07:52.826Z,48.50
2019-03-30T20:10:24.441Z,48.50
2019-03-30T20:12:55.943Z,48.50
2019-03-30T20:15:27.394Z,48.60
2019-03-30T20:17:59.156Z,48.60
2019-03-30T20:20:30.948Z,48.60
2019-03-30T20:23:02.493Z,48.70
2019-03-30T20:25:34.466Z,48.70
2019-03-30T20:28:06.257Z,48.70
2019-03-30T20:30:37.922Z,48.80
2019-03-30T20:33:09.375Z,48.80
2019-03-30T20:35:40.899Z,48.70
2019-03-30T20:38:12.404Z,48.90
2019-03-30T20:40:43.826Z,48.70
2019-03-30T20:43:15.265Z,48.70
2019-03-30T20:45:46.948Z,48.80
2019-03-30T20:48:18.402Z,48.90
2019-03-30T20:50:50.186Z,48.90
2019-03-30T20:53:21.488Z,48.90
2019-03-30T20:55:52.960Z,48.90
2019-03-30T20:58:24.383Z,48.80
2019-03-30T21:00:55.775Z,48.90
2019-03-30T21:03:27.395Z,49.00
2019-03-30T21:05:59.630Z,49.10
2019-03-30T21:08:31.141Z,49.20
2019-03-30T21:11:02.663Z,49.10
2019-03-30T21:13:34.475Z,49.30
2019-03-30T21:16:05.889Z,49.30
2019-03-30T21:18:37.338Z,49.40
2019-03-30T21:21:09.398Z,49.20
2019-03-30T21:23:40.877Z,49.10
2019-03-30T21:26:12.635Z,49.10
2019-03-30T21:28:44.946Z,49.10
2019-03-30T21:31:20.507Z,49.10
2019-03-30T21:33:52.118Z,49.00
2019-03-30T21:36:23.529Z,49.10
2019-03-30T21:38:55.072Z,49.20
2019-03-30T21:41:26.650Z,49.10
2019-03-30T21:43:59.150Z,49.10
2019-03-30T21:46:30.603Z,48.90
2019-03-30T21:49:02.434Z,48.90
2019-03-30T21:51:33.949Z,48.90
2019-03-30T21:54:05.544Z,49.00
2019-03-30T21:56:37.636Z,49.00
2019-03-30T21:59:09.947Z,49.00
2019-03-30T22:01:42.011Z,49.10
2019-03-30T22:04:13.811Z,49.10
2019-03-30T22:06:46.992Z,49.10
2019-03-30T22:09:21.160Z,49.30
2019-03-30T22:11:52.649Z,49.60
2019-03-30T22:14:24.537Z,49.70
2019-03-30T22:16:55.890Z,49.90
2019-03-30T22:19:27.557Z,50.00
2019-03-30T22:21:59.036Z,50.10
2019-03-30T22:24:30.629Z,50.20
2019-03-30T22:27:02.325Z,50.10
2019-03-30T22:29:33.842Z,50.30
2019-03-30T22:32:05.260Z,50.40
2019-03-30T22:34:36.520Z,50.40
2019-03-30T22:37:07.972Z,51.00
2019-03-30T22:39:39.327Z,50.10
2019-03-30T22:42:10.907Z,50.30
2019-03-30T22:44:42.483Z,50.90
2019-03-30T22:47:14.066Z,50.90
2019-03-30T22:49:45.661Z,51.20
2019-03-30T22:52:20.245Z,51.70
2019-03-30T22:54:50.505Z,51.20
2019-03-30T22:57:21.878Z,51.10
2019-03-30T22:59:54.095Z,50.90
2019-03-30T23:02:27.148Z,50.90
2019-03-30T23:05:00.356Z,51.60
2019-03-30T23:07:33.328Z,52.10
2019-03-30T23:10:05.737Z,52.90
2019-03-30T23:12:38.605Z,54.10
2019-03-30T23:15:11.120Z,53.80
2019-03-30T23:17:43.769Z,54.50
2019-03-30T23:20:16.400Z,56.40
2019-03-30T23:22:48.770Z,57.20
2019-03-30T23:25:22.687Z,56.60
2019-03-30T23:27:55.018Z,56.90
2019-03-30T23:30:29.353Z,56.90
2019-03-30T23:33:02.535Z,56.40
2019-03-30T23:35:35.343Z,55.90
2019-03-30T23:38:08.204Z,55.50
2019-03-30T23:40:40.515Z,55.20
2019-03-30T23:43:13.141Z,55.10
2019-03-30T23:45:46.235Z,55.00
2019-03-30T23:48:19.278Z,54.90
2019-03-30T23:50:51.284Z,54.70
2019-03-30T23:53:24.318Z,54.40
2019-03-30T23:55:57.440Z,54.10
2019-03-30T23:58:29.983Z,54.20
